首页
METAR-TAF:

METAR-TAF

机场 :

何塞·马蒂国际机场

哈瓦那, 古巴

纬度: 22-59N, 经度: 082-24W, 海拔: 59米

当前天气观测

该预报发布于1小时和19分钟前的06:55 UTC
风速4节,风向南转西南
温度 12°C
湿度 88%
气压 1017 hPa
能見度: 9000
多云层高于4000英尺

METAR: MUHA 230655Z 21004KT 9000 BKN040 12/10 Q1017

时间: 03:14 (08:14 UTC)

预报

该预报发布于3小时和14分钟前的05:00 UTC
预报有效从23日的 06点(UTC)到 24日的 06点(UTC)
风速3节,风向多变
能見度: 9000
散云层高于3000英尺
成为
从 23日的 14点(UTC)到 23日的 16点(UTC)
风速10节,风向北转东北
成为
从 24日的 01点(UTC)到 24日的 03点(UTC)
风速3节,风向多变
少量云层高于3000英尺

TAF: MUHA 230500Z 2306/2406 VRB03KT 9000 SCT030 BECMG 2314/2316 02010KT BECMG 2401/2403 VRB03KT FEW030

超过4000个机场的气象观测和天气预报(METAR&TAF报告)。

可查询的气象台以黄色和红色小点在地图上表示。

将鼠标移到小点上方,可查看气象台名称。

然后点击查看天气观测和预报。

如需切换地图:点击带黑十字的绿色按钮放大地图;点击带横线的绿色按钮缩小地图;或者点击绿色箭头查看邻近地区的地图。


METAR-TAF: